Detall de PIREP

Printer-friendly versionPDF version

[2012/11/18 17:25:00]
Flight IATA:CT0001
Pilot Number:012
Company ICAO:CAT
Aircraft Type:DC3/A
PAX:19
Aircraft Registration:PAX
Departing Airport: LEMH
Destination Airport: LERS
Alternate Airport:LEPA
Online: VATSIM
Route:LUNIK A25 BCN
Flight Level:F100
No Slew and time accel
No pause
Crash detect
Detect pilot in Cockpit between each 30 and 45 minutes
17:25 Zero fuel Weight: 19752 Lbs, Fuel Weight: 1428 Lbs
17:25 VATSIM:LEMH 181630Z 02003KT 9999 VCTS FEW018 FEW025CB SCT048 17/15 Q1007
17:25 VATSIM:LERS 181630Z 00000KT 9999 BKN040 15/11 Q1010
17:25 VOICE CATALONIAN
17:28 Parking Brakes off
17:32 Take-off
17:32 Take off Weight: 21160 Lbs
17:32 Wind: 001º @ 001 Knots Heading: 008º
17:32 POS N39º 51´ 31´´ E004º 13´ 04´´
17:32 Gear Up: 103 Knots
17:43 TOC
17:43 Fuel Weight: 1270 Lb
17:47 Wind:014º@007 Knots Heading: 308º Ground Speed: 160 Knots Altitude 9809 ft
18:02 Wind:014º@007 Knots Heading: 316º Ground Speed: 158 Knots Altitude 9826 ft
18:17 Wind:004º@010 Knots Heading: 310º Ground Speed: 155 Knots Altitude 9973 ft
18:29 TOD
18:29 Fuel Weight: 821 Lb
18:32 Wind:004º@010 Knots Heading: 292º Ground Speed: 171 Knots Altitude 8579 ft
18:47 Wind:000º@002 Knots Heading: 242º Ground Speed: 124 Knots Altitude 2188 ft
18:47 Flaps:1 at 105 Knots
18:47 Flaps:2 at 99 Knots
18:47 Gear Down: 97 Knots
18:48 Flaps:3 at 79 Knots
18:49 Flaps:4 at 73 Knots
18:50 TouchDown:Rate -149 ft/min Speed: 61 Knots
18:51 VATSIM:LERS 181800Z 00000KT 9999 BKN040 14/11 Q1011
18:51 Land
18:51 Wind:003º@002 Knots
18:51 Heading: 248º
18:51 Flight Duration: 01:19
18:51 Landing Weight: 20421 Lbs
18:51 POS N41º 08´ 53´´ E001º 10´ 09´´
18:53 Parking brakes on
18:53 Block to Block Duration: 01:25
18:53 Final Fuel: 663 Lbls
18:53 Spent Fuel: 764 Lbls
18:53 Flight Length: 191 NM
18:53 TOD Land Length: 53 NM

Exportar CSV

Powered by Drupal - Modified by Danger4k